sensor_id;sensor_type;location;lat;lon;timestamp;pressure;altitude;pressure_sealevel;temperature;humidity
12991;BME280;6560;57.692;11.958;2023-10-31T00:01:32;99522.84;;;21.94;93.05
12991;BME280;6560;57.692;11.958;2023-10-31T00:03:58;99522.34;;;21.48;92.21
12991;BME280;6560;57.692;11.958;2023-10-31T00:06:23;99519.41;;;21.27;96.64
12991;BME280;6560;57.692;11.958;2023-10-31T00:08:49;99526.53;;;22.01;96.84
12991;BME280;6560;57.692;11.958;2023-10-31T00:11:14;99531.31;;;21.51;93.66
12991;BME280;6560;57.692;11.958;2023-10-31T00:13:40;99509.41;;;22.95;87.45
12991;BME280;6560;57.692;11.958;2023-10-31T00:16:05;99529.06;;;22.91;76.69
12991;BME280;6560;57.692;11.958;2023-10-31T00:18:31;99515.44;;;22.62;72.44
12991;BME280;6560;57.692;11.958;2023-10-31T00:20:56;99511.56;;;23.80;75.43
12991;BME280;6560;57.692;11.958;2023-10-31T00:23:22;99520.59;;;24.94;68.67
12991;BME280;6560;57.692;11.958;2023-10-31T00:25:47;99504.44;;;24.90;68.32
12991;BME280;6560;57.692;11.958;2023-10-31T00:28:13;99509.84;;;24.72;63.90
12991;BME280;6560;57.692;11.958;2023-10-31T00:30:39;99531.41;;;24.43;68.32
12991;BME280;6560;57.692;11.958;2023-10-31T00:33:04;99531.38;;;24.12;69.12
12991;BME280;6560;57.692;11.958;2023-10-31T00:35:30;99528.59;;;23.67;71.11
12991;BME280;6560;57.692;11.958;2023-10-31T00:37:56;99525.09;;;24.83;65.19
12991;BME280;6560;57.692;11.958;2023-10-31T00:40:21;99534.13;;;24.67;63.01
12991;BME280;6560;57.692;11.958;2023-10-31T00:42:47;99506.31;;;22.45;71.26
12991;BME280;6560;57.692;11.958;2023-10-31T00:45:12;99531.31;;;23.74;71.36
12991;BME280;6560;57.692;11.958;2023-10-31T00:47:38;99527.56;;;23.40;72.37
12991;BME280;6560;57.692;11.958;2023-10-31T00:50:04;99530.16;;;23.25;67.89
12991;BME280;6560;57.692;11.958;2023-10-31T00:52:29;99520.59;;;24.96;61.58
12991;BME280;6560;57.692;11.958;2023-10-31T00:54:55;99521.22;;;23.32;67.78
12991;BME280;6560;57.692;11.958;2023-10-31T00:57:20;99503.28;;;23.22;68.41
12991;BME280;6560;57.692;11.958;2023-10-31T00:59:45;99527.47;;;23.22;67.47
12991;BME280;6560;57.692;11.958;2023-10-31T01:02:11;99508.59;;;23.09;73.69
12991;BME280;6560;57.692;11.958;2023-10-31T01:04:36;99481.78;;;22.00;69.01
12991;BME280;6560;57.692;11.958;2023-10-31T01:07:03;99495.78;;;22.70;68.24
12991;BME280;6560;57.692;11.958;2023-10-31T01:09:28;99507.34;;;22.61;69.34
12991;BME280;6560;57.692;11.958;2023-10-31T01:11:53;99500.81;;;21.39;72.53
12991;BME280;6560;57.692;11.958;2023-10-31T01:14:20;99515.97;;;22.20;75.18
12991;BME280;6560;57.692;11.958;2023-10-31T01:16:45;99522.63;;;20.43;79.30
12991;BME280;6560;57.692;11.958;2023-10-31T01:19:11;99497.16;;;21.33;81.75
12991;BME280;6560;57.692;11.958;2023-10-31T01:21:36;99511.19;;;21.91;80.11
12991;BME280;6560;57.692;11.958;2023-10-31T01:24:02;99516.00;;;22.22;73.42
12991;BME280;6560;57.692;11.958;2023-10-31T01:26:27;99515.75;;;21.96;76.18
12991;BME280;6560;57.692;11.958;2023-10-31T01:28:52;99530.34;;;19.33;84.36
12991;BME280;6560;57.692;11.958;2023-10-31T01:31:18;99507.56;;;19.52;89.22
12991;BME280;6560;57.692;11.958;2023-10-31T01:33:44;99505.53;;;20.95;84.83
12991;BME280;6560;57.692;11.958;2023-10-31T01:36:10;99524.56;;;20.02;86.33
12991;BME280;6560;57.692;11.958;2023-10-31T01:38:37;99495.25;;;21.24;76.35
12991;BME280;6560;57.692;11.958;2023-10-31T01:41:03;99501.34;;;20.00;78.42
12991;BME280;6560;57.692;11.958;2023-10-31T01:43:37;99501.38;;;20.01;75.91
12991;BME280;6560;57.692;11.958;2023-10-31T01:46:04;99509.38;;;21.14;71.52
12991;BME280;6560;57.692;11.958;2023-10-31T01:48:31;99520.06;;;20.00;78.17
12991;BME280;6560;57.692;11.958;2023-10-31T01:50:59;99521.78;;;19.95;80.53
12991;BME280;6560;57.692;11.958;2023-10-31T01:53:25;99526.25;;;21.05;68.05
12991;BME280;6560;57.692;11.958;2023-10-31T01:55:52;99481.88;;;21.26;70.25
12991;BME280;6560;57.692;11.958;2023-10-31T01:58:23;99510.66;;;21.42;70.48
12991;BME280;6560;57.692;11.958;2023-10-31T02:00:50;99493.66;;;20.74;72.80
12991;BME280;6560;57.692;11.958;2023-10-31T02:03:17;99500.53;;;19.57;75.56
12991;BME280;6560;57.692;11.958;2023-10-31T02:05:42;99509.19;;;20.40;74.94
12991;BME280;6560;57.692;11.958;2023-10-31T02:08:08;99496.78;;;19.94;79.42
12991;BME280;6560;57.692;11.958;2023-10-31T02:10:34;99491.13;;;18.90;86.06
12991;BME280;6560;57.692;11.958;2023-10-31T02:13:16;99498.91;;;18.08;100.00
12991;BME280;6560;57.692;11.958;2023-10-31T02:15:42;99488.03;;;19.13;96.84
12991;BME280;6560;57.692;11.958;2023-10-31T02:18:08;99498.78;;;20.58;81.09
12991;BME280;6560;57.692;11.958;2023-10-31T02:20:34;99484.31;;;19.96;88.43
12991;BME280;6560;57.692;11.958;2023-10-31T02:22:59;99493.94;;;19.40;86.28
12991;BME280;6560;57.692;11.958;2023-10-31T02:25:25;99491.50;;;19.08;86.17
12991;BME280;6560;57.692;11.958;2023-10-31T02:27:51;99485.44;;;18.39;87.43
12991;BME280;6560;57.692;11.958;2023-10-31T02:30:16;99465.63;;;19.06;88.72
12991;BME280;6560;57.692;11.958;2023-10-31T02:32:42;99484.63;;;18.04;95.92
12991;BME280;6560;57.692;11.958;2023-10-31T02:35:08;99492.59;;;19.18;88.45
12991;BME280;6560;57.692;11.958;2023-10-31T02:37:34;99493.97;;;18.99;88.67
12991;BME280;6560;57.692;11.958;2023-10-31T02:40:00;99477.91;;;18.96;90.06
12991;BME280;6560;57.692;11.958;2023-10-31T02:42:26;99496.16;;;17.70;84.80
12991;BME280;6560;57.692;11.958;2023-10-31T02:44:51;99494.34;;;19.16;77.08
12991;BME280;6560;57.692;11.958;2023-10-31T02:47:17;99490.91;;;19.23;82.65
12991;BME280;6560;57.692;11.958;2023-10-31T02:49:43;99488.34;;;18.86;85.65
12991;BME280;6560;57.692;11.958;2023-10-31T02:52:08;99489.38;;;18.92;82.88
12991;BME280;6560;57.692;11.958;2023-10-31T02:54:34;99481.97;;;18.79;79.79
12991;BME280;6560;57.692;11.958;2023-10-31T02:56:59;99473.25;;;19.31;80.95
12991;BME280;6560;57.692;11.958;2023-10-31T02:59:24;99488.72;;;17.91;95.07
12991;BME280;6560;57.692;11.958;2023-10-31T03:01:50;99475.00;;;19.73;95.13
12991;BME280;6560;57.692;11.958;2023-10-31T03:04:15;99477.50;;;18.05;91.49
12991;BME280;6560;57.692;11.958;2023-10-31T03:06:41;99472.59;;;18.59;92.24
12991;BME280;6560;57.692;11.958;2023-10-31T03:09:07;99471.44;;;18.48;94.28
12991;BME280;6560;57.692;11.958;2023-10-31T03:11:33;99471.97;;;18.33;96.54
12991;BME280;6560;57.692;11.958;2023-10-31T03:13:58;99478.78;;;17.86;100.00
12991;BME280;6560;57.692;11.958;2023-10-31T03:16:24;99452.97;;;17.50;96.50
12991;BME280;6560;57.692;11.958;2023-10-31T03:18:49;99463.84;;;17.92;100.00
12991;BME280;6560;57.692;11.958;2023-10-31T03:21:15;99466.53;;;19.06;84.93
12991;BME280;6560;57.692;11.958;2023-10-31T03:23:42;99483.56;;;17.99;98.28
12991;BME280;6560;57.692;11.958;2023-10-31T03:26:08;99468.31;;;17.28;89.12
12991;BME280;6560;57.692;11.958;2023-10-31T03:28:34;99456.41;;;18.53;85.69
12991;BME280;6560;57.692;11.958;2023-10-31T03:30:59;99489.34;;;17.81;96.20
12991;BME280;6560;57.692;11.958;2023-10-31T03:33:25;99442.78;;;17.36;95.43
12991;BME280;6560;57.692;11.958;2023-10-31T03:35:50;99446.81;;;18.22;100.00
12991;BME280;6560;57.692;11.958;2023-10-31T03:38:15;99461.81;;;18.18;95.08
12991;BME280;6560;57.692;11.958;2023-10-31T03:40:41;99443.66;;;18.79;88.18
12991;BME280;6560;57.692;11.958;2023-10-31T03:43:06;99448.75;;;18.29;85.79
12991;BME280;6560;57.692;11.958;2023-10-31T03:45:32;99459.91;;;17.77;86.84
12991;BME280;6560;57.692;11.958;2023-10-31T03:47:58;99439.81;;;20.57;79.09
12991;BME280;6560;57.692;11.958;2023-10-31T03:50:23;99446.69;;;19.39;72.99
12991;BME280;6560;57.692;11.958;2023-10-31T03:52:49;99433.31;;;17.80;80.44
12991;BME280;6560;57.692;11.958;2023-10-31T03:55:14;99457.69;;;19.53;77.06
12991;BME280;6560;57.692;11.958;2023-10-31T03:57:40;99426.31;;;18.58;77.43
12991;BME280;6560;57.692;11.958;2023-10-31T04:00:06;99391.63;;;17.49;86.65
12991;BME280;6560;57.692;11.958;2023-10-31T04:02:33;99427.81;;;18.08;87.74
12991;BME280;6560;57.692;11.958;2023-10-31T04:04:58;99432.81;;;18.32;82.33
12991;BME280;6560;57.692;11.958;2023-10-31T04:07:24;99421.91;;;18.60;79.25
12991;BME280;6560;57.692;11.958;2023-10-31T04:09:49;99423.00;;;19.57;75.33
12991;BME280;6560;57.692;11.958;2023-10-31T04:12:15;99421.19;;;20.07;72.08
12991;BME280;6560;57.692;11.958;2023-10-31T04:14:41;99443.13;;;19.38;74.63
12991;BME280;6560;57.692;11.958;2023-10-31T04:17:06;99441.28;;;18.14;89.38
12991;BME280;6560;57.692;11.958;2023-10-31T04:19:31;99444.94;;;17.18;100.00
12991;BME280;6560;57.692;11.958;2023-10-31T04:21:57;99457.88;;;17.04;87.79
12991;BME280;6560;57.692;11.958;2023-10-31T04:24:23;99452.00;;;19.36;76.57
12991;BME280;6560;57.692;11.958;2023-10-31T04:26:48;99458.72;;;19.16;69.58
12991;BME280;6560;57.692;11.958;2023-10-31T04:29:14;99444.91;;;19.86;74.86
12991;BME280;6560;57.692;11.958;2023-10-31T04:31:39;99442.72;;;19.64;74.81
12991;BME280;6560;57.692;11.958;2023-10-31T04:34:05;99447.41;;;18.87;79.02
12991;BME280;6560;57.692;11.958;2023-10-31T04:36:30;99431.06;;;18.71;79.60
12991;BME280;6560;57.692;11.958;2023-10-31T04:38:55;99428.81;;;18.51;84.97
12991;BME280;6560;57.692;11.958;2023-10-31T04:41:21;99432.03;;;18.00;92.93
12991;BME280;6560;57.692;11.958;2023-10-31T04:43:46;99404.44;;;16.66;95.64
12991;BME280;6560;57.692;11.958;2023-10-31T04:46:12;99443.59;;;17.02;100.00
12991;BME280;6560;57.692;11.958;2023-10-31T04:48:37;99452.03;;;18.55;68.25
12991;BME280;6560;57.692;11.958;2023-10-31T04:51:03;99436.28;;;20.04;68.70
12991;BME280;6560;57.692;11.958;2023-10-31T04:53:29;99413.78;;;20.45;65.36
12991;BME280;6560;57.692;11.958;2023-10-31T04:55:54;99423.09;;;20.16;74.83
12991;BME280;6560;57.692;11.958;2023-10-31T04:58:20;99416.13;;;22.76;56.67
12991;BME280;6560;57.692;11.958;2023-10-31T05:00:46;99439.44;;;21.70;62.49
12991;BME280;6560;57.692;11.958;2023-10-31T05:03:12;99444.53;;;20.17;68.02
12991;BME280;6560;57.692;11.958;2023-10-31T05:05:37;99424.94;;;18.76;77.11
12991;BME280;6560;57.692;11.958;2023-10-31T05:08:03;99436.63;;;18.06;75.10
12991;BME280;6560;57.692;11.958;2023-10-31T05:10:29;99425.97;;;21.67;57.73
12991;BME280;6560;57.692;11.958;2023-10-31T05:12:54;99419.59;;;18.38;75.67
12991;BME280;6560;57.692;11.958;2023-10-31T05:15:19;99422.59;;;17.77;81.31
12991;BME280;6560;57.692;11.958;2023-10-31T05:17:45;99412.78;;;19.84;71.53
12991;BME280;6560;57.692;11.958;2023-10-31T05:20:10;99429.78;;;20.41;66.68
12991;BME280;6560;57.692;11.958;2023-10-31T05:22:37;99418.59;;;19.59;75.12
12991;BME280;6560;57.692;11.958;2023-10-31T05:25:02;99433.81;;;19.63;71.01
12991;BME280;6560;57.692;11.958;2023-10-31T05:27:28;99434.47;;;18.27;77.40
12991;BME280;6560;57.692;11.958;2023-10-31T05:29:54;99416.59;;;19.02;75.86
12991;BME280;6560;57.692;11.958;2023-10-31T05:32:19;99420.50;;;18.39;77.17
12991;BME280;6560;57.692;11.958;2023-10-31T05:34:45;99433.88;;;20.19;67.41
12991;BME280;6560;57.692;11.958;2023-10-31T05:37:10;99409.69;;;19.14;79.79
12991;BME280;6560;57.692;11.958;2023-10-31T05:39:36;99427.13;;;18.18;79.03
12991;BME280;6560;57.692;11.958;2023-10-31T05:42:02;99439.94;;;16.67;92.26
12991;BME280;6560;57.692;11.958;2023-10-31T05:44:28;99438.19;;;15.85;100.00
12991;BME280;6560;57.692;11.958;2023-10-31T05:46:53;99446.66;;;16.27;99.06
12991;BME280;6560;57.692;11.958;2023-10-31T05:49:19;99438.69;;;15.25;100.00
12991;BME280;6560;57.692;11.958;2023-10-31T05:51:45;99430.09;;;16.09;100.00
12991;BME280;6560;57.692;11.958;2023-10-31T05:54:10;99449.81;;;15.38;100.00
12991;BME280;6560;57.692;11.958;2023-10-31T05:56:36;99443.03;;;16.54;100.00
12991;BME280;6560;57.692;11.958;2023-10-31T05:59:01;99443.50;;;19.13;88.03
12991;BME280;6560;57.692;11.958;2023-10-31T06:01:27;99437.72;;;18.92;87.05
12991;BME280;6560;57.692;11.958;2023-10-31T06:03:52;99437.00;;;17.85;84.84
12991;BME280;6560;57.692;11.958;2023-10-31T06:06:18;99447.97;;;18.72;79.63
12991;BME280;6560;57.692;11.958;2023-10-31T06:08:44;99431.69;;;19.00;79.80
12991;BME280;6560;57.692;11.958;2023-10-31T06:11:10;99454.56;;;17.77;91.35
12991;BME280;6560;57.692;11.958;2023-10-31T06:13:39;99460.53;;;17.35;81.70
12991;BME280;6560;57.692;11.958;2023-10-31T06:16:05;99422.25;;;17.00;97.43
12991;BME280;6560;57.692;11.958;2023-10-31T06:18:30;99458.84;;;17.07;94.78
12991;BME280;6560;57.692;11.958;2023-10-31T06:20:56;99455.75;;;18.61;83.20
12991;BME280;6560;57.692;11.958;2023-10-31T06:23:21;99460.06;;;18.19;85.00
12991;BME280;6560;57.692;11.958;2023-10-31T06:25:46;99457.00;;;16.47;96.38
12991;BME280;6560;57.692;11.958;2023-10-31T06:28:13;99449.00;;;16.73;100.00
12991;BME280;6560;57.692;11.958;2023-10-31T06:30:38;99466.31;;;16.06;100.00
12991;BME280;6560;57.692;11.958;2023-10-31T06:33:03;99442.78;;;16.73;100.00
12991;BME280;6560;57.692;11.958;2023-10-31T06:35:29;99447.13;;;17.32;100.00
12991;BME280;6560;57.692;11.958;2023-10-31T06:37:55;99451.31;;;19.04;85.83
12991;BME280;6560;57.692;11.958;2023-10-31T06:40:23;99456.28;;;17.75;86.54
12991;BME280;6560;57.692;11.958;2023-10-31T06:42:48;99463.47;;;17.13;100.00
12991;BME280;6560;57.692;11.958;2023-10-31T06:45:14;99458.53;;;18.66;83.46
12991;BME280;6560;57.692;11.958;2023-10-31T06:47:39;99454.38;;;18.41;83.18
12991;BME280;6560;57.692;11.958;2023-10-31T06:50:07;99468.75;;;19.72;80.67
12991;BME280;6560;57.692;11.958;2023-10-31T06:52:32;99476.38;;;19.09;74.48
12991;BME280;6560;57.692;11.958;2023-10-31T06:54:58;99436.25;;;20.56;75.96
12991;BME280;6560;57.692;11.958;2023-10-31T06:57:23;99467.22;;;18.96;80.61
12991;BME280;6560;57.692;11.958;2023-10-31T06:59:49;99462.38;;;17.69;89.07
12991;BME280;6560;57.692;11.958;2023-10-31T07:02:14;99428.97;;;17.50;92.04
12991;BME280;6560;57.692;11.958;2023-10-31T07:04:40;99448.44;;;17.48;94.05
12991;BME280;6560;57.692;11.958;2023-10-31T07:07:05;99456.81;;;18.68;82.24
12991;BME280;6560;57.692;11.958;2023-10-31T07:09:31;99447.16;;;17.34;88.90
12991;BME280;6560;57.692;11.958;2023-10-31T07:11:57;99459.56;;;17.33;93.47
12991;BME280;6560;57.692;11.958;2023-10-31T07:14:22;99445.84;;;16.88;100.00
12991;BME280;6560;57.692;11.958;2023-10-31T07:16:48;99442.25;;;19.86;95.52
12991;BME280;6560;57.692;11.958;2023-10-31T07:19:14;99449.94;;;16.76;100.00
12991;BME280;6560;57.692;11.958;2023-10-31T07:21:39;99459.44;;;17.29;89.56
12991;BME280;6560;57.692;11.958;2023-10-31T07:24:05;99455.88;;;16.39;100.00
12991;BME280;6560;57.692;11.958;2023-10-31T07:26:34;99449.53;;;17.56;89.16
12991;BME280;6560;57.692;11.958;2023-10-31T07:28:59;99458.53;;;18.28;92.90
12991;BME280;6560;57.692;11.958;2023-10-31T07:31:25;99458.91;;;18.44;87.69
12991;BME280;6560;57.692;11.958;2023-10-31T07:33:50;99434.59;;;19.13;93.55
12991;BME280;6560;57.692;11.958;2023-10-31T07:36:16;99441.13;;;19.27;79.00
12991;BME280;6560;57.692;11.958;2023-10-31T07:38:41;99439.31;;;19.26;79.45
12991;BME280;6560;57.692;11.958;2023-10-31T07:41:07;99440.25;;;18.86;85.77
12991;BME280;6560;57.692;11.958;2023-10-31T07:43:32;99416.13;;;18.03;85.27
12991;BME280;6560;57.692;11.958;2023-10-31T07:45:58;99422.94;;;17.90;98.32
12991;BME280;6560;57.692;11.958;2023-10-31T07:48:23;99436.53;;;19.66;80.08
12991;BME280;6560;57.692;11.958;2023-10-31T07:50:49;99439.31;;;18.82;77.30
12991;BME280;6560;57.692;11.958;2023-10-31T07:53:14;99409.03;;;20.29;72.70
12991;BME280;6560;57.692;11.958;2023-10-31T07:55:40;99406.00;;;17.56;89.98
12991;BME280;6560;57.692;11.958;2023-10-31T07:58:05;99406.56;;;18.92;80.59
12991;BME280;6560;57.692;11.958;2023-10-31T08:00:30;99417.09;;;17.39;92.47
12991;BME280;6560;57.692;11.958;2023-10-31T08:02:57;99413.69;;;19.35;78.77
12991;BME280;6560;57.692;11.958;2023-10-31T08:05:22;99399.66;;;19.47;75.41
12991;BME280;6560;57.692;11.958;2023-10-31T08:07:48;99384.16;;;17.69;91.40
12991;BME280;6560;57.692;11.958;2023-10-31T08:10:13;99398.28;;;19.70;80.96
12991;BME280;6560;57.692;11.958;2023-10-31T08:12:39;99409.22;;;18.13;76.38
12991;BME280;6560;57.692;11.958;2023-10-31T08:15:05;99406.59;;;19.87;70.17
12991;BME280;6560;57.692;11.958;2023-10-31T08:17:30;99383.03;;;17.26;89.60
12991;BME280;6560;57.692;11.958;2023-10-31T08:19:56;99374.94;;;19.60;73.34
12991;BME280;6560;57.692;11.958;2023-10-31T08:22:21;99396.88;;;19.92;71.80
12991;BME280;6560;57.692;11.958;2023-10-31T08:24:47;99382.25;;;19.22;74.86
12991;BME280;6560;57.692;11.958;2023-10-31T08:27:13;99375.63;;;19.48;88.09
12991;BME280;6560;57.692;11.958;2023-10-31T08:29:39;99394.72;;;19.23;68.02
12991;BME280;6560;57.692;11.958;2023-10-31T08:32:05;99381.13;;;19.58;70.54
12991;BME280;6560;57.692;11.958;2023-10-31T08:34:31;99404.34;;;18.32;76.34
12991;BME280;6560;57.692;11.958;2023-10-31T08:36:56;99380.13;;;18.61;72.15
12991;BME280;6560;57.692;11.958;2023-10-31T08:39:23;99412.34;;;17.28;87.32
12991;BME280;6560;57.692;11.958;2023-10-31T08:41:56;99372.16;;;18.62;76.39
12991;BME280;6560;57.692;11.958;2023-10-31T08:44:23;99375.34;;;18.09;84.59
12991;BME280;6560;57.692;11.958;2023-10-31T08:46:48;99394.72;;;19.23;71.42
12991;BME280;6560;57.692;11.958;2023-10-31T08:49:15;99378.31;;;21.40;63.07
12991;BME280;6560;57.692;11.958;2023-10-31T08:51:41;99397.75;;;19.43;68.35
12991;BME280;6560;57.692;11.958;2023-10-31T08:54:06;99376.84;;;19.67;75.83
12991;BME280;6560;57.692;11.958;2023-10-31T08:56:32;99393.06;;;18.44;77.76
12991;BME280;6560;57.692;11.958;2023-10-31T08:58:58;99373.59;;;18.48;80.64
12991;BME280;6560;57.692;11.958;2023-10-31T09:01:23;99387.72;;;18.83;79.26
12991;BME280;6560;57.692;11.958;2023-10-31T09:03:49;99367.69;;;18.22;86.14
12991;BME280;6560;57.692;11.958;2023-10-31T09:06:14;99368.06;;;17.31;89.83
12991;BME280;6560;57.692;11.958;2023-10-31T09:08:40;99380.31;;;18.71;81.83
12991;BME280;6560;57.692;11.958;2023-10-31T09:11:05;99376.47;;;19.46;81.64
12991;BME280;6560;57.692;11.958;2023-10-31T09:13:31;99378.00;;;19.84;76.74
12991;BME280;6560;57.692;11.958;2023-10-31T09:15:58;99374.78;;;20.65;70.64
12991;BME280;6560;57.692;11.958;2023-10-31T09:18:25;99382.56;;;19.90;73.11
12991;BME280;6560;57.692;11.958;2023-10-31T09:20:51;99365.28;;;19.70;80.79
12991;BME280;6560;57.692;11.958;2023-10-31T09:23:17;99378.19;;;18.97;77.69
12991;BME280;6560;57.692;11.958;2023-10-31T09:25:43;99359.53;;;16.79;100.00
12991;BME280;6560;57.692;11.958;2023-10-31T09:28:09;99365.66;;;17.75;100.00
12991;BME280;6560;57.692;11.958;2023-10-31T09:30:34;99385.78;;;18.78;79.95
12991;BME280;6560;57.692;11.958;2023-10-31T09:33:00;99382.97;;;19.14;78.38
12991;BME280;6560;57.692;11.958;2023-10-31T09:35:25;99375.25;;;18.45;88.90
12991;BME280;6560;57.692;11.958;2023-10-31T09:37:52;99370.38;;;17.86;95.12
12991;BME280;6560;57.692;11.958;2023-10-31T09:40:17;99367.00;;;18.73;83.96
12991;BME280;6560;57.692;11.958;2023-10-31T09:42:46;99362.31;;;19.05;92.22
12991;BME280;6560;57.692;11.958;2023-10-31T09:45:12;99363.22;;;17.85;100.00
12991;BME280;6560;57.692;11.958;2023-10-31T09:47:38;99349.94;;;17.87;96.49
12991;BME280;6560;57.692;11.958;2023-10-31T09:50:04;99355.63;;;19.78;93.55
12991;BME280;6560;57.692;11.958;2023-10-31T09:52:30;99357.31;;;18.36;100.00
12991;BME280;6560;57.692;11.958;2023-10-31T09:54:56;99347.78;;;18.89;90.11
12991;BME280;6560;57.692;11.958;2023-10-31T09:57:21;99363.53;;;19.22;84.65
12991;BME280;6560;57.692;11.958;2023-10-31T09:59:47;99354.75;;;19.79;79.72
12991;BME280;6560;57.692;11.958;2023-10-31T10:02:12;99344.56;;;23.18;71.30
12991;BME280;6560;57.692;11.958;2023-10-31T10:04:38;99364.03;;;20.61;73.35
12991;BME280;6560;57.692;11.958;2023-10-31T10:07:04;99352.56;;;20.11;73.83
12991;BME280;6560;57.692;11.958;2023-10-31T10:09:30;99363.50;;;19.69;75.10
12991;BME280;6560;57.692;11.958;2023-10-31T10:12:00;99355.50;;;19.70;76.78
12991;BME280;6560;57.692;11.958;2023-10-31T10:14:26;99353.25;;;18.55;92.80
12991;BME280;6560;57.692;11.958;2023-10-31T10:16:54;99341.41;;;21.15;75.86
12991;BME280;6560;57.692;11.958;2023-10-31T10:19:21;99351.13;;;18.39;93.83
12991;BME280;6560;57.692;11.958;2023-10-31T10:21:56;99345.47;;;18.23;100.00
12991;BME280;6560;57.692;11.958;2023-10-31T10:24:23;99339.56;;;16.63;100.00
12991;BME280;6560;57.692;11.958;2023-10-31T10:26:49;99353.69;;;17.25;100.00
12991;BME280;6560;57.692;11.958;2023-10-31T10:29:15;99330.16;;;16.16;100.00
12991;BME280;6560;57.692;11.958;2023-10-31T10:31:41;99347.56;;;16.96;100.00
12991;BME280;6560;57.692;11.958;2023-10-31T10:34:08;99346.88;;;16.42;100.00
12991;BME280;6560;57.692;11.958;2023-10-31T10:36:34;99349.94;;;16.25;100.00
12991;BME280;6560;57.692;11.958;2023-10-31T10:38:59;99336.50;;;16.81;100.00
12991;BME280;6560;57.692;11.958;2023-10-31T10:41:26;99341.03;;;15.67;100.00
12991;BME280;6560;57.692;11.958;2023-10-31T10:43:58;99340.47;;;16.63;100.00
12991;BME280;6560;57.692;11.958;2023-10-31T10:46:33;99341.31;;;15.49;100.00
12991;BME280;6560;57.692;11.958;2023-10-31T10:48:59;99318.84;;;16.23;100.00
12991;BME280;6560;57.692;11.958;2023-10-31T10:54:19;99314.81;;;16.98;100.00
12991;BME280;6560;57.692;11.958;2023-10-31T10:57:48;99313.38;;;17.45;100.00
12991;BME280;6560;57.692;11.958;2023-10-31T10:59:49;99317.31;;;16.61;100.00
12991;BME280;6560;57.692;11.958;2023-10-31T11:02:18;99302.91;;;16.54;100.00
12991;BME280;6560;57.692;11.958;2023-10-31T11:04:44;99305.47;;;16.81;100.00
12991;BME280;6560;57.692;11.958;2023-10-31T11:07:10;99321.94;;;18.06;100.00
12991;BME280;6560;57.692;11.958;2023-10-31T11:09:37;99324.03;;;18.59;100.00
12991;BME280;6560;57.692;11.958;2023-10-31T11:12:03;99319.09;;;18.39;100.00
12991;BME280;6560;57.692;11.958;2023-10-31T11:14:30;99320.28;;;17.37;100.00
12991;BME280;6560;57.692;11.958;2023-10-31T11:17:00;99303.31;;;16.66;100.00
12991;BME280;6560;57.692;11.958;2023-10-31T11:19:28;99303.03;;;17.58;100.00
12991;BME280;6560;57.692;11.958;2023-10-31T11:21:58;99297.22;;;17.39;100.00
12991;BME280;6560;57.692;11.958;2023-10-31T11:24:32;99313.34;;;15.88;100.00
12991;BME280;6560;57.692;11.958;2023-10-31T11:27:01;99303.34;;;17.35;100.00
12991;BME280;6560;57.692;11.958;2023-10-31T11:29:26;99284.31;;;17.93;100.00
12991;BME280;6560;57.692;11.958;2023-10-31T11:31:55;99294.75;;;17.47;100.00
12991;BME280;6560;57.692;11.958;2023-10-31T11:34:22;99291.38;;;17.18;100.00
12991;BME280;6560;57.692;11.958;2023-10-31T11:36:47;99290.28;;;16.77;100.00
12991;BME280;6560;57.692;11.958;2023-10-31T11:39:14;99304.88;;;17.99;100.00
12991;BME280;6560;57.692;11.958;2023-10-31T11:41:45;99307.22;;;18.23;100.00
12991;BME280;6560;57.692;11.958;2023-10-31T11:44:14;99301.56;;;18.93;100.00
12991;BME280;6560;57.692;11.958;2023-10-31T11:46:40;99294.78;;;17.12;100.00
12991;BME280;6560;57.692;11.958;2023-10-31T11:49:06;99289.88;;;17.64;100.00
12991;BME280;6560;57.692;11.958;2023-10-31T11:51:32;99278.84;;;16.50;100.00
12991;BME280;6560;57.692;11.958;2023-10-31T11:53:59;99301.53;;;17.34;100.00
12991;BME280;6560;57.692;11.958;2023-10-31T11:56:26;99291.34;;;18.73;100.00
12991;BME280;6560;57.692;11.958;2023-10-31T11:59:00;99291.63;;;18.02;100.00
12991;BME280;6560;57.692;11.958;2023-10-31T12:01:26;99278.09;;;17.56;100.00
12991;BME280;6560;57.692;11.958;2023-10-31T12:03:51;99282.78;;;18.03;100.00
12991;BME280;6560;57.692;11.958;2023-10-31T12:06:17;99309.47;;;17.31;100.00
12991;BME280;6560;57.692;11.958;2023-10-31T12:08:45;99283.78;;;17.69;100.00
12991;BME280;6560;57.692;11.958;2023-10-31T12:11:14;99270.44;;;20.05;100.00
12991;BME280;6560;57.692;11.958;2023-10-31T12:13:57;99281.44;;;18.25;100.00
12991;BME280;6560;57.692;11.958;2023-10-31T12:16:26;99278.06;;;19.25;100.00
12991;BME280;6560;57.692;11.958;2023-10-31T12:21:45;99300.41;;;17.25;100.00
12991;BME280;6560;57.692;11.958;2023-10-31T12:24:14;99280.34;;;18.14;100.00
12991;BME280;6560;57.692;11.958;2023-10-31T12:26:40;99281.78;;;17.98;100.00
12991;BME280;6560;57.692;11.958;2023-10-31T12:29:11;99291.41;;;17.93;100.00
12991;BME280;6560;57.692;11.958;2023-10-31T12:31:48;99293.31;;;17.97;100.00
12991;BME280;6560;57.692;11.958;2023-10-31T12:34:15;99267.91;;;21.91;100.00
12991;BME280;6560;57.692;11.958;2023-10-31T12:36:41;99289.06;;;23.53;73.02
12991;BME280;6560;57.692;11.958;2023-10-31T12:39:11;99290.84;;;18.92;100.00
12991;BME280;6560;57.692;11.958;2023-10-31T12:41:38;99301.94;;;18.26;100.00
12991;BME280;6560;57.692;11.958;2023-10-31T12:44:04;99287.38;;;18.10;100.00
12991;BME280;6560;57.692;11.958;2023-10-31T12:46:31;99309.53;;;18.48;100.00
12991;BME280;6560;57.692;11.958;2023-10-31T12:48:57;99308.50;;;19.33;100.00
12991;BME280;6560;57.692;11.958;2023-10-31T12:51:23;99302.69;;;19.57;100.00
12991;BME280;6560;57.692;11.958;2023-10-31T12:53:49;99281.41;;;20.25;99.85
12991;BME280;6560;57.692;11.958;2023-10-31T12:59:10;99292.63;;;19.98;100.00
12991;BME280;6560;57.692;11.958;2023-10-31T13:01:42;99275.84;;;20.08;98.28